createdAt,value
2023-04-27T00:02:42.589Z,2.80
2023-04-27T00:08:04.916Z,2.25
2023-04-27T00:13:27.420Z,3.80
2023-04-27T00:18:49.328Z,2.83
2023-04-27T00:24:11.199Z,1.35
2023-04-27T00:29:33.032Z,1.35
2023-04-27T00:34:54.846Z,1.60
2023-04-27T00:40:16.999Z,2.38
2023-04-27T00:45:43.612Z,2.00
2023-04-27T00:51:06.260Z,1.67
2023-04-27T00:56:28.112Z,3.17
2023-04-27T01:01:50.199Z,1.20
2023-04-27T01:07:12.224Z,1.90
2023-04-27T01:12:34.104Z,1.33
2023-04-27T01:18:00.116Z,2.53
2023-04-27T01:23:22.141Z,1.02
2023-04-27T01:28:43.953Z,0.90
2023-04-27T01:34:06.404Z,2.58
2023-04-27T01:39:28.257Z,1.92
2023-04-27T01:44:50.067Z,0.85
2023-04-27T01:50:11.830Z,1.33
2023-04-27T01:55:33.734Z,1.02
2023-04-27T02:00:55.681Z,1.38
2023-04-27T02:06:17.518Z,1.17
2023-04-27T02:11:39.619Z,0.90
2023-04-27T02:17:01.437Z,1.25
2023-04-27T02:22:23.512Z,1.58
2023-04-27T02:27:45.330Z,3.83
2023-04-27T02:33:07.780Z,1.40
2023-04-27T02:38:30.386Z,1.63
2023-04-27T02:43:52.350Z,1.10
2023-04-27T02:49:14.650Z,1.42
2023-04-27T02:54:36.943Z,1.42
2023-04-27T02:59:58.777Z,1.08
2023-04-27T03:05:20.621Z,2.17
2023-04-27T03:10:42.481Z,1.60
2023-04-27T03:16:04.425Z,1.02
2023-04-27T03:21:27.198Z,2.92
2023-04-27T03:26:49.057Z,1.45
2023-04-27T03:32:10.944Z,1.50
2023-04-27T03:37:33.102Z,1.25
2023-04-27T03:42:54.868Z,0.95
2023-04-27T03:48:17.213Z,2.17
2023-04-27T03:53:39.052Z,1.33
2023-04-27T03:59:00.997Z,1.88
2023-04-27T04:04:23.036Z,2.30
2023-04-27T04:09:44.856Z,2.28
2023-04-27T04:15:08.092Z,1.15
2023-04-27T04:20:29.889Z,1.92
2023-04-27T04:25:51.842Z,1.13
2023-04-27T04:31:15.228Z,2.80
2023-04-27T04:36:37.073Z,2.00
2023-04-27T04:41:59.020Z,1.95
2023-04-27T04:47:20.792Z,1.65
2023-04-27T04:52:42.657Z,1.95
2023-04-27T04:58:04.445Z,2.25
2023-04-27T05:03:26.483Z,1.10
2023-04-27T05:08:48.552Z,0.60
2023-04-27T05:14:10.350Z,0.73
2023-04-27T05:19:32.505Z,0.95
2023-04-27T05:24:54.389Z,3.22
2023-04-27T05:30:16.164Z,4.50
2023-04-27T05:35:38.014Z,6.22
2023-04-27T05:41:00.341Z,3.63
2023-04-27T05:46:22.378Z,6.47
2023-04-27T05:51:44.710Z,8.70
2023-04-27T05:57:06.579Z,8.25
2023-04-27T06:02:28.582Z,3.95
2023-04-27T06:07:50.791Z,5.45
2023-04-27T06:13:12.553Z,3.85
2023-04-27T06:18:34.463Z,4.93
2023-04-27T06:23:56.317Z,3.35
2023-04-27T06:29:18.330Z,5.88
2023-04-27T06:34:40.171Z,3.13
2023-04-27T06:40:02.079Z,5.03
2023-04-27T06:45:24.276Z,4.45
2023-04-27T06:50:47.479Z,5.28
2023-04-27T06:56:11.927Z,4.13
2023-04-27T07:01:33.901Z,4.45
2023-04-27T07:06:56.364Z,6.25
2023-04-27T07:12:18.206Z,4.82
2023-04-27T07:17:40.129Z,5.18
2023-04-27T07:23:02.038Z,5.43
2023-04-27T07:28:23.867Z,6.35
2023-04-27T07:33:46.744Z,7.00
2023-04-27T07:39:08.537Z,4.55
2023-04-27T07:44:30.862Z,2.75
2023-04-27T07:49:53.337Z,4.13
2023-04-27T07:55:15.125Z,5.22
2023-04-27T08:00:37.623Z,2.83
2023-04-27T08:05:59.786Z,4.18
2023-04-27T08:11:22.819Z,3.05
2023-04-27T08:16:44.999Z,3.97
2023-04-27T08:22:07.048Z,9.45
2023-04-27T08:27:28.945Z,4.03
2023-04-27T08:32:50.809Z,5.28
2023-04-27T08:38:12.704Z,8.98
2023-04-27T08:43:36.311Z,7.78
2023-04-27T08:48:58.171Z,5.68
2023-04-27T08:54:21.001Z,6.05
2023-04-27T08:59:45.490Z,9.18
2023-04-27T09:05:16.160Z,5.47
2023-04-27T09:10:50.327Z,5.13
2023-04-27T09:16:15.343Z,6.25
2023-04-27T09:21:37.275Z,7.00
2023-04-27T09:27:00.657Z,4.30
2023-04-27T09:32:22.876Z,5.03
2023-04-27T09:37:45.029Z,9.13
2023-04-27T09:43:07.875Z,4.93
2023-04-27T09:48:29.954Z,8.15
2023-04-27T09:53:58.953Z,6.45
2023-04-27T09:59:55.767Z,5.97
2023-04-27T10:05:54.989Z,4.88
2023-04-27T10:11:19.766Z,7.05
2023-04-27T10:16:55.816Z,6.00
2023-04-27T10:27:41.398Z,5.47
2023-04-27T10:33:11.156Z,12.35
2023-04-27T10:38:33.374Z,11.75
2023-04-27T10:43:55.336Z,6.93
2023-04-27T10:49:17.165Z,8.30
2023-04-27T10:54:39.996Z,8.27
2023-04-27T11:00:01.909Z,4.45
2023-04-27T11:05:25.674Z,3.78
2023-04-27T11:10:50.825Z,2.15
2023-04-27T11:16:12.832Z,7.97
2023-04-27T11:21:34.683Z,6.30
2023-04-27T11:26:56.495Z,3.35
2023-04-27T11:32:23.128Z,2.35
2023-04-27T11:37:45.117Z,2.25
2023-04-27T11:43:07.152Z,3.78
2023-04-27T11:48:29.662Z,3.78
2023-04-27T11:53:52.453Z,4.85
2023-04-27T11:59:21.988Z,1.98
2023-04-27T12:04:43.958Z,4.47
2023-04-27T12:10:08.138Z,3.08
2023-04-27T12:15:30.005Z,4.97
2023-04-27T12:20:52.237Z,3.78
2023-04-27T12:26:15.129Z,2.97
2023-04-27T12:31:37.421Z,5.53
2023-04-27T12:36:59.380Z,9.93
2023-04-27T12:42:24.420Z,10.00
2023-04-27T12:47:58.114Z,3.97
2023-04-27T12:53:24.228Z,5.15
2023-04-27T12:58:46.604Z,4.03
2023-04-27T13:04:09.391Z,2.58
2023-04-27T13:09:31.447Z,1.92
2023-04-27T13:14:53.275Z,2.42
2023-04-27T13:20:15.752Z,3.58
2023-04-27T13:25:37.766Z,1.20
2023-04-27T13:31:00.477Z,2.80
2023-04-27T13:36:22.645Z,3.50
2023-04-27T13:41:44.482Z,3.65
2023-04-27T13:47:07.108Z,4.05
2023-04-27T13:52:29.805Z,4.35
2023-04-27T13:57:51.624Z,5.05
2023-04-27T14:03:13.568Z,5.40
2023-04-27T14:08:35.556Z,9.10
2023-04-27T14:13:58.230Z,7.05
2023-04-27T14:19:20.905Z,3.72
2023-04-27T14:24:42.788Z,4.75
2023-04-27T14:30:05.555Z,3.25
2023-04-27T14:35:28.162Z,3.35
2023-04-27T14:40:49.946Z,2.67
2023-04-27T14:46:20.470Z,5.07
2023-04-27T14:51:43.673Z,3.50
2023-04-27T14:57:06.092Z,3.17
2023-04-27T15:02:28.027Z,2.05
2023-04-27T15:07:49.881Z,2.92
2023-04-27T15:13:12.140Z,2.63
2023-04-27T15:18:34.371Z,3.50
2023-04-27T15:23:56.229Z,8.25
2023-04-27T15:29:17.977Z,4.85
2023-04-27T15:34:42.825Z,5.22
2023-04-27T15:40:07.674Z,4.07
2023-04-27T15:45:29.937Z,1.63
2023-04-27T15:50:51.815Z,6.00
2023-04-27T15:56:13.645Z,2.13
2023-04-27T16:01:35.703Z,5.55
2023-04-27T16:06:57.806Z,1.63
2023-04-27T16:12:19.700Z,1.95
2023-04-27T16:17:41.897Z,3.45
2023-04-27T16:23:03.823Z,4.18
2023-04-27T16:28:25.744Z,2.03
2023-04-27T16:33:48.504Z,4.32
2023-04-27T16:39:11.074Z,2.25
2023-04-27T16:44:32.965Z,2.05
2023-04-27T16:49:54.779Z,2.08
2023-04-27T16:55:16.752Z,7.15
2023-04-27T17:00:40.438Z,3.47
2023-04-27T17:06:03.258Z,1.60
2023-04-27T17:11:25.194Z,2.60
2023-04-27T17:16:47.031Z,1.88
2023-04-27T17:22:11.547Z,4.32
2023-04-27T17:27:33.385Z,3.23
2023-04-27T17:32:55.296Z,0.95
2023-04-27T17:38:17.332Z,4.50
2023-04-27T17:43:39.181Z,4.20
2023-04-27T17:49:01.318Z,3.17
2023-04-27T17:54:23.159Z,6.95
2023-04-27T17:59:45.715Z,8.43
2023-04-27T18:05:08.115Z,8.38
2023-04-27T18:10:29.909Z,9.88
2023-04-27T18:15:51.740Z,9.75
2023-04-27T18:21:13.488Z,13.35
2023-04-27T18:26:37.038Z,3.95
2023-04-27T18:32:01.891Z,7.47
2023-04-27T18:37:23.749Z,10.40
2023-04-27T18:42:45.646Z,14.50
2023-04-27T18:48:07.461Z,7.35
2023-04-27T18:53:29.322Z,4.15
2023-04-27T18:58:51.365Z,7.65
2023-04-27T19:04:13.449Z,8.93
2023-04-27T19:09:35.459Z,15.07
2023-04-27T19:14:57.277Z,13.68
2023-04-27T19:20:19.382Z,6.13
2023-04-27T19:25:41.341Z,11.40
2023-04-27T19:31:03.312Z,3.75
2023-04-27T19:36:26.362Z,10.18
2023-04-27T19:41:48.355Z,10.50
2023-04-27T19:47:13.152Z,8.43
2023-04-27T19:52:34.975Z,10.13
2023-04-27T19:57:56.990Z,17.45
2023-04-27T20:03:19.092Z,9.90
2023-04-27T20:08:41.147Z,5.05
2023-04-27T20:14:03.046Z,8.52
2023-04-27T20:19:25.338Z,12.80
2023-04-27T20:24:47.350Z,10.77
2023-04-27T20:30:09.746Z,31.67
2023-04-27T20:35:31.623Z,16.60
2023-04-27T20:40:53.709Z,19.10
2023-04-27T20:46:15.578Z,25.40
2023-04-27T20:51:37.429Z,47.20
2023-04-27T20:57:02.341Z,19.90
2023-04-27T21:02:24.327Z,23.70
2023-04-27T21:07:46.366Z,37.90
2023-04-27T21:13:08.567Z,34.45
2023-04-27T21:18:30.992Z,29.60
2023-04-27T21:24:04.169Z,23.67
2023-04-27T21:29:28.804Z,22.90
2023-04-27T21:34:50.691Z,21.33
2023-04-27T21:40:12.748Z,18.17
2023-04-27T21:45:34.635Z,18.95
2023-04-27T21:50:56.394Z,17.00
2023-04-27T21:56:18.165Z,11.77
2023-04-27T22:01:40.057Z,15.23
2023-04-27T22:07:02.661Z,11.15
2023-04-27T22:12:24.635Z,17.75
2023-04-27T22:17:46.475Z,11.73
2023-04-27T22:23:09.590Z,13.02
2023-04-27T22:28:31.352Z,6.90
2023-04-27T22:33:53.197Z,12.60
2023-04-27T22:39:15.176Z,8.38
2023-04-27T22:44:36.924Z,8.95
2023-04-27T22:49:59.368Z,6.40
2023-04-27T22:55:21.417Z,14.45
2023-04-27T23:00:43.182Z,5.95
2023-04-27T23:06:05.634Z,8.38
2023-04-27T23:11:28.066Z,6.85
2023-04-27T23:16:50.081Z,9.05
2023-04-27T23:22:11.853Z,7.07
2023-04-27T23:27:33.664Z,7.18
2023-04-27T23:32:55.483Z,4.57
2023-04-27T23:38:17.481Z,4.85
2023-04-27T23:43:39.861Z,6.85
2023-04-27T23:49:01.878Z,6.43
2023-04-27T23:54:23.759Z,4.32
2023-04-27T23:59:45.962Z,4.57
